createdAt,value
2018-08-04T00:00:22.100Z,10.00
2018-08-04T00:02:51.621Z,9.23
2018-08-04T00:05:21.093Z,13.33
2018-08-04T00:07:50.404Z,10.20
2018-08-04T00:10:21.425Z,10.43
2018-08-04T00:12:51.899Z,14.60
2018-08-04T00:15:21.423Z,8.33
2018-08-04T00:17:51.153Z,10.30
2018-08-04T00:20:20.727Z,12.53
2018-08-04T00:22:49.901Z,11.30
2018-08-04T00:25:19.564Z,11.87
2018-08-04T00:27:48.994Z,10.23
2018-08-04T00:30:18.383Z,10.63
2018-08-04T00:32:47.751Z,10.83
2018-08-04T00:35:17.395Z,12.03
2018-08-04T00:37:46.806Z,8.37
2018-08-04T00:40:16.431Z,9.10
2018-08-04T00:42:46.060Z,8.27
2018-08-04T00:45:15.560Z,7.63
2018-08-04T00:47:45.040Z,9.43
2018-08-04T00:50:14.655Z,7.63
2018-08-04T00:52:44.026Z,9.40
2018-08-04T00:55:13.615Z,8.97
2018-08-04T00:57:43.420Z,6.77
2018-08-04T01:00:13.103Z,6.77
2018-08-04T01:02:42.705Z,7.27
2018-08-04T01:05:12.518Z,5.63
2018-08-04T01:07:41.916Z,6.77
2018-08-04T01:10:11.747Z,7.37
2018-08-04T01:12:41.438Z,9.33
2018-08-04T01:15:10.809Z,5.83
2018-08-04T01:17:40.264Z,5.60
2018-08-04T01:20:09.945Z,6.23
2018-08-04T01:22:39.478Z,6.53
2018-08-04T01:25:09.031Z,6.13
2018-08-04T01:27:38.455Z,5.17
2018-08-04T01:30:07.893Z,7.73
2018-08-04T01:32:37.488Z,5.37
2018-08-04T01:35:07.210Z,8.03
2018-08-04T01:37:36.464Z,7.03
2018-08-04T01:40:06.916Z,4.87
2018-08-04T01:42:36.849Z,6.83
2018-08-04T01:45:06.586Z,4.17
2018-08-04T01:47:36.252Z,4.37
2018-08-04T01:50:06.053Z,4.40
2018-08-04T01:52:35.299Z,4.97
2018-08-04T01:55:04.685Z,3.03
2018-08-04T01:57:34.412Z,5.00
2018-08-04T02:00:03.972Z,3.87
2018-08-04T02:02:33.356Z,4.40
2018-08-04T02:05:03.303Z,4.90
2018-08-04T02:07:32.552Z,7.53
2018-08-04T02:10:01.988Z,4.20
2018-08-04T02:12:31.767Z,3.93
2018-08-04T02:15:01.206Z,3.20
2018-08-04T02:17:30.719Z,3.70
2018-08-04T02:20:00.508Z,3.80
2018-08-04T02:22:30.168Z,4.07
2018-08-04T02:24:59.622Z,4.77
2018-08-04T02:27:29.230Z,5.93
2018-08-04T02:29:58.503Z,4.50
2018-08-04T02:32:27.935Z,4.30
2018-08-04T02:34:57.906Z,5.63
2018-08-04T02:37:27.456Z,5.63
2018-08-04T02:39:56.837Z,4.57
2018-08-04T02:42:26.746Z,3.87
2018-08-04T02:44:56.204Z,5.70
2018-08-04T02:47:25.578Z,5.37
2018-08-04T02:49:55.195Z,4.90
2018-08-04T02:52:24.556Z,7.93
2018-08-04T02:54:54.156Z,4.87
2018-08-04T02:57:24.107Z,2.80
2018-08-04T02:59:53.563Z,5.07
2018-08-04T03:02:22.981Z,3.53
2018-08-04T03:04:52.799Z,4.87
2018-08-04T03:07:22.199Z,4.03
2018-08-04T03:09:51.506Z,5.00
2018-08-04T03:12:21.044Z,6.57
2018-08-04T03:14:50.824Z,3.63
2018-08-04T03:17:20.044Z,4.00
2018-08-04T03:19:49.877Z,4.73
2018-08-04T03:22:19.241Z,6.27
2018-08-04T03:24:48.665Z,6.83
2018-08-04T03:27:18.452Z,4.30
2018-08-04T03:29:47.848Z,4.63
2018-08-04T03:32:17.092Z,4.93
2018-08-04T03:34:46.807Z,6.00
2018-08-04T03:37:16.196Z,5.23
2018-08-04T03:39:45.552Z,3.97
2018-08-04T03:42:15.249Z,4.60
2018-08-04T03:44:44.572Z,3.27
2018-08-04T03:47:13.974Z,5.93
2018-08-04T03:49:43.945Z,5.93
2018-08-04T03:52:13.567Z,6.63
2018-08-04T03:54:42.896Z,4.43
2018-08-04T03:57:12.847Z,7.97
2018-08-04T03:59:42.279Z,6.27
2018-08-04T04:02:11.634Z,4.80
2018-08-04T04:04:41.735Z,6.23
2018-08-04T04:07:11.198Z,4.63
2018-08-04T04:09:40.524Z,6.57
2018-08-04T04:12:10.220Z,9.03
2018-08-04T04:14:39.582Z,5.60
2018-08-04T04:17:08.978Z,6.20
2018-08-04T04:19:38.585Z,6.30
2018-08-04T04:22:08.227Z,4.77
2018-08-04T04:24:37.593Z,7.33
2018-08-04T04:27:07.414Z,5.33
2018-08-04T04:29:36.838Z,7.10
2018-08-04T04:32:06.536Z,7.63
2018-08-04T04:34:35.919Z,6.30
2018-08-04T04:37:05.306Z,8.47
2018-08-04T04:39:34.866Z,6.60
2018-08-04T04:42:05.845Z,6.70
2018-08-04T04:44:35.242Z,6.20
2018-08-04T04:47:05.107Z,6.20
2018-08-04T04:49:34.951Z,6.93
2018-08-04T05:05:15.699Z,6.27
2018-08-04T05:07:45.230Z,4.97
2018-08-04T05:10:14.755Z,6.63
2018-08-04T05:12:44.627Z,4.17
2018-08-04T05:15:13.919Z,4.47
2018-08-04T05:17:43.324Z,7.23
2018-08-04T05:20:13.337Z,5.53
2018-08-04T05:22:42.775Z,6.80
2018-08-04T05:25:12.084Z,5.40
2018-08-04T05:27:42.254Z,5.50
2018-08-04T05:30:11.852Z,7.50
2018-08-04T05:32:41.092Z,5.60
2018-08-04T05:35:10.914Z,5.53
2018-08-04T05:37:40.267Z,5.00
2018-08-04T05:40:09.745Z,6.23
2018-08-04T05:42:39.406Z,7.73
2018-08-04T05:45:09.738Z,5.47
2018-08-04T05:47:39.319Z,5.27
2018-08-04T05:50:09.093Z,5.57
2018-08-04T05:52:38.497Z,6.30
2018-08-04T05:55:08.005Z,5.67
2018-08-04T05:57:37.607Z,6.87
2018-08-04T06:00:08.214Z,5.20
2018-08-04T06:02:37.819Z,8.57
2018-08-04T06:05:07.608Z,6.80
2018-08-04T06:07:36.963Z,6.13
2018-08-04T06:10:06.667Z,5.80
2018-08-04T06:12:36.431Z,7.10
2018-08-04T06:15:06.640Z,6.33
2018-08-04T06:17:36.163Z,9.03
2018-08-04T06:20:05.903Z,10.13
2018-08-04T06:22:35.468Z,9.70
2018-08-04T06:25:04.687Z,12.60
2018-08-04T06:27:34.505Z,8.63
2018-08-04T06:30:03.921Z,9.10
2018-08-04T06:32:33.333Z,6.20
2018-08-04T06:35:03.461Z,9.17
2018-08-04T06:37:32.660Z,6.53
2018-08-04T06:40:01.962Z,8.07
2018-08-04T06:42:31.621Z,8.93
2018-08-04T06:45:01.036Z,7.93
2018-08-04T06:47:30.493Z,7.40
2018-08-04T06:50:00.173Z,10.23
2018-08-04T06:52:29.583Z,8.13
2018-08-04T06:54:59.158Z,8.97
2018-08-04T06:57:29.169Z,6.47
2018-08-04T06:59:58.629Z,10.80
2018-08-04T07:02:28.310Z,11.63
2018-08-04T07:04:58.063Z,11.60
2018-08-04T07:07:27.433Z,7.40
2018-08-04T07:09:57.011Z,10.37
2018-08-04T07:12:26.677Z,10.70
2018-08-04T07:14:56.286Z,8.37
2018-08-04T07:17:25.897Z,7.20
2018-08-04T07:19:55.629Z,9.33
2018-08-04T07:22:25.847Z,7.90
2018-08-04T07:24:55.684Z,9.17
2018-08-04T07:27:25.826Z,9.77
2018-08-04T07:29:55.257Z,8.20
2018-08-04T07:32:24.614Z,8.77
2018-08-04T07:34:54.562Z,8.13
2018-08-04T07:37:23.971Z,8.83
2018-08-04T07:39:53.468Z,10.30
2018-08-04T07:42:23.179Z,13.20
2018-08-04T07:44:52.537Z,8.93
2018-08-04T07:47:21.971Z,8.73
2018-08-04T07:49:51.646Z,6.10
2018-08-04T07:52:21.341Z,7.50
2018-08-04T07:54:50.695Z,8.80
2018-08-04T07:57:20.426Z,6.93
2018-08-04T07:59:50.124Z,7.77
2018-08-04T08:02:19.514Z,5.90
2018-08-04T08:04:49.268Z,6.57
2018-08-04T08:07:23.642Z,10.57
2018-08-04T08:09:54.124Z,6.53
2018-08-04T08:12:23.800Z,7.43
2018-08-04T08:14:53.227Z,5.50
2018-08-04T08:17:23.109Z,7.60
2018-08-04T08:19:52.477Z,8.60
2018-08-04T08:22:27.719Z,6.93
2018-08-04T08:24:57.172Z,6.03
2018-08-04T08:27:26.788Z,6.30
2018-08-04T08:29:56.658Z,6.33
2018-08-04T08:32:27.210Z,6.67
2018-08-04T08:34:56.611Z,4.97
2018-08-04T08:37:26.855Z,6.13
2018-08-04T08:39:56.352Z,8.00
2018-08-04T08:42:26.054Z,6.33
2018-08-04T08:44:55.778Z,8.37
2018-08-04T08:47:25.293Z,7.07
2018-08-04T08:49:54.594Z,6.20
2018-08-04T08:52:24.830Z,4.57
2018-08-04T08:54:54.305Z,5.43
2018-08-04T08:57:23.782Z,4.67
2018-08-04T08:59:53.397Z,6.70
2018-08-04T09:02:22.811Z,5.43
2018-08-04T09:04:52.263Z,6.43
2018-08-04T09:07:22.377Z,7.53
2018-08-04T09:09:51.910Z,10.03
2018-08-04T09:12:21.220Z,5.63
2018-08-04T09:14:51.117Z,4.90
2018-08-04T09:17:20.354Z,5.10
2018-08-04T09:19:49.861Z,6.07
2018-08-04T09:22:19.678Z,7.20
2018-08-04T09:24:48.920Z,8.73
2018-08-04T09:27:18.327Z,7.70
2018-08-04T09:29:47.850Z,6.33
2018-08-04T09:32:17.280Z,6.87
2018-08-04T09:34:46.504Z,8.27
2018-08-04T09:37:16.210Z,6.90
2018-08-04T09:39:45.555Z,8.00
2018-08-04T09:42:14.965Z,7.63
2018-08-04T09:44:44.856Z,7.30
2018-08-04T09:47:14.276Z,6.13
2018-08-04T09:49:43.575Z,6.70
2018-08-04T09:52:13.340Z,9.13
2018-08-04T09:54:42.791Z,6.97
2018-08-04T09:57:12.209Z,5.57
2018-08-04T09:59:41.890Z,7.63
2018-08-04T10:02:12.191Z,7.53
2018-08-04T10:04:41.899Z,8.03
2018-08-04T10:07:11.719Z,8.73
2018-08-04T10:09:41.024Z,5.87
2018-08-04T10:12:10.084Z,5.83
2018-08-04T10:14:39.969Z,8.00
2018-08-04T10:17:09.333Z,11.70
2018-08-04T10:19:38.752Z,9.97
2018-08-04T10:22:08.585Z,6.50
2018-08-04T10:24:37.940Z,5.87
2018-08-04T10:27:07.562Z,4.63
2018-08-04T10:29:37.632Z,4.93
2018-08-04T10:32:07.546Z,5.67
2018-08-04T10:34:36.828Z,5.27
2018-08-04T10:37:06.457Z,4.37
2018-08-04T10:39:35.601Z,4.97
2018-08-04T10:42:04.990Z,4.37
2018-08-04T10:44:34.772Z,5.80
2018-08-04T10:47:04.282Z,6.53
2018-08-04T10:49:33.719Z,4.57
2018-08-04T10:52:03.540Z,4.97
2018-08-04T10:54:33.293Z,3.13
2018-08-04T10:57:02.483Z,6.27
2018-08-04T10:59:32.261Z,4.03
2018-08-04T11:02:01.802Z,5.30
2018-08-04T11:04:30.979Z,4.50
2018-08-04T11:07:00.850Z,5.47
2018-08-04T11:09:30.369Z,7.57
2018-08-04T11:11:59.956Z,6.07
2018-08-04T11:14:29.628Z,9.03
2018-08-04T11:16:59.778Z,5.73
2018-08-04T11:19:29.378Z,4.70
2018-08-04T11:21:59.015Z,4.93
2018-08-04T11:24:28.843Z,4.13
2018-08-04T11:26:58.439Z,5.20
2018-08-04T11:29:28.244Z,4.53
2018-08-04T11:31:57.787Z,4.67
2018-08-04T11:34:27.595Z,5.77
2018-08-04T11:36:57.149Z,7.47
2018-08-04T11:39:26.727Z,7.20
2018-08-04T11:41:56.078Z,5.70
2018-08-04T11:44:25.737Z,7.40
2018-08-04T11:46:55.436Z,6.07
2018-08-04T11:49:24.796Z,5.37
2018-08-04T11:51:54.409Z,6.13
2018-08-04T11:54:24.103Z,8.37
2018-08-04T11:56:53.486Z,5.90
2018-08-04T11:59:23.371Z,6.97
2018-08-04T12:01:52.987Z,8.40
2018-08-04T12:04:22.432Z,5.47
2018-08-04T12:06:52.042Z,5.53
2018-08-04T12:09:21.447Z,5.50
2018-08-04T12:11:50.866Z,6.37
2018-08-04T12:14:20.303Z,4.33
2018-08-04T12:16:49.898Z,7.27
2018-08-04T12:19:19.184Z,7.23
2018-08-04T12:21:48.817Z,8.30
2018-08-04T12:24:18.236Z,6.30
2018-08-04T12:26:47.569Z,5.53
2018-08-04T12:29:16.992Z,6.17
2018-08-04T12:31:46.540Z,4.93
2018-08-04T12:34:15.667Z,7.37
2018-08-04T12:36:45.291Z,4.40
2018-08-04T12:39:14.748Z,5.83
2018-08-04T12:41:44.113Z,5.90
2018-08-04T12:44:13.663Z,5.77
2018-08-04T12:46:43.010Z,3.90
2018-08-04T12:49:12.291Z,4.73
2018-08-04T12:51:41.930Z,5.10
2018-08-04T12:54:11.599Z,6.47
2018-08-04T12:56:41.247Z,6.63
2018-08-04T12:59:11.208Z,4.97
2018-08-04T13:01:40.709Z,3.93
2018-08-04T13:04:10.506Z,4.10
2018-08-04T13:06:40.224Z,6.80
2018-08-04T13:09:11.383Z,6.57
2018-08-04T13:11:40.894Z,5.03
2018-08-04T13:14:10.357Z,6.20
2018-08-04T13:16:39.796Z,11.20
2018-08-04T13:19:09.694Z,6.00
2018-08-04T13:21:38.960Z,9.83
2018-08-04T13:24:08.733Z,5.10
2018-08-04T13:26:38.470Z,5.23
2018-08-04T13:29:08.011Z,5.90
2018-08-04T13:31:37.795Z,8.67
2018-08-04T13:34:07.518Z,6.03
2018-08-04T13:36:36.786Z,11.90
2018-08-04T13:39:09.333Z,3.90
2018-08-04T13:41:39.270Z,6.50
2018-08-04T13:44:08.922Z,5.27
2018-08-04T13:46:39.158Z,6.13
2018-08-04T13:49:08.668Z,7.43
2018-08-04T13:51:37.969Z,7.43
2018-08-04T13:54:08.304Z,5.23
2018-08-04T13:56:37.789Z,7.60
2018-08-04T13:59:07.544Z,3.90
2018-08-04T14:01:37.378Z,8.27
2018-08-04T14:04:08.431Z,5.87
2018-08-04T14:06:38.348Z,5.87
2018-08-04T14:09:09.331Z,4.23
2018-08-04T14:11:39.010Z,6.50
2018-08-04T14:14:08.674Z,4.13
2018-08-04T14:16:38.088Z,7.37
2018-08-04T14:19:07.750Z,6.93
2018-08-04T14:21:37.187Z,6.07
2018-08-04T14:24:06.700Z,5.63
2018-08-04T14:26:36.136Z,5.53
2018-08-04T14:29:05.925Z,5.73
2018-08-04T14:31:35.328Z,5.93
2018-08-04T14:34:06.168Z,8.00
2018-08-04T14:36:35.802Z,6.87
2018-08-04T14:39:08.368Z,5.23
2018-08-04T14:41:38.499Z,8.30
2018-08-04T14:44:08.178Z,5.87
2018-08-04T14:46:37.993Z,8.20
2018-08-04T14:49:07.599Z,5.17
2018-08-04T14:51:37.649Z,6.67
2018-08-04T14:54:07.732Z,8.70
2018-08-04T14:56:38.783Z,7.23
2018-08-04T14:59:08.400Z,8.00
2018-08-04T15:01:38.198Z,9.30
2018-08-04T15:04:08.335Z,9.10
2018-08-04T15:06:37.746Z,6.47
2018-08-04T15:09:09.790Z,6.27
2018-08-04T15:11:42.512Z,6.97
2018-08-04T15:14:12.231Z,5.97
2018-08-04T15:16:41.645Z,5.33
2018-08-04T15:19:11.085Z,5.50
2018-08-04T15:21:40.777Z,6.03
2018-08-04T15:24:10.143Z,5.70
2018-08-04T15:26:39.579Z,6.70
2018-08-04T15:29:09.738Z,4.80
2018-08-04T15:31:39.194Z,5.17
2018-08-04T15:34:08.646Z,7.27
2018-08-04T15:36:38.581Z,6.17
2018-08-04T15:39:09.939Z,4.20
2018-08-04T15:41:39.634Z,4.83
2018-08-04T15:44:09.366Z,5.83
2018-08-04T15:46:39.207Z,8.27
2018-08-04T15:49:09.047Z,6.07
2018-08-04T15:51:38.333Z,5.27
2018-08-04T15:54:07.616Z,6.93
2018-08-04T15:57:39.875Z,5.57
2018-08-04T16:00:10.544Z,6.70
2018-08-04T16:02:40.071Z,7.40
2018-08-04T16:05:10.113Z,5.37
2018-08-04T16:07:39.618Z,6.00
2018-08-04T16:10:09.066Z,3.73
2018-08-04T16:12:38.977Z,6.10
2018-08-04T16:15:08.514Z,7.93
2018-08-04T16:17:37.921Z,5.97
2018-08-04T16:20:11.767Z,5.80
2018-08-04T16:22:44.828Z,4.60
2018-08-04T16:25:16.975Z,7.33
2018-08-04T16:27:46.583Z,8.20
2018-08-04T16:30:15.985Z,6.83
2018-08-04T16:32:47.016Z,5.80
2018-08-04T16:35:17.017Z,7.17
2018-08-04T16:37:46.087Z,6.87
2018-08-04T16:40:15.385Z,5.00
2018-08-04T16:42:44.863Z,5.17
2018-08-04T16:45:16.767Z,6.40
2018-08-04T16:47:46.009Z,10.33
2018-08-04T16:50:15.360Z,6.60
2018-08-04T16:52:44.772Z,10.73
2018-08-04T16:55:14.506Z,8.63
2018-08-04T16:57:43.894Z,4.93
2018-08-04T17:00:13.781Z,4.67
2018-08-04T17:02:43.110Z,7.23
2018-08-04T17:05:12.479Z,8.77
2018-08-04T17:07:42.607Z,6.40
2018-08-04T17:10:12.059Z,9.80
2018-08-04T17:12:41.600Z,9.47
2018-08-04T17:15:11.257Z,7.40
2018-08-04T17:17:40.663Z,5.70
2018-08-04T17:20:10.842Z,6.30
2018-08-04T17:22:40.648Z,8.40
2018-08-04T17:25:13.109Z,7.03
2018-08-04T17:27:44.387Z,5.57
2018-08-04T17:30:13.980Z,10.63
2018-08-04T17:32:43.781Z,6.93
2018-08-04T17:35:13.429Z,13.47
2018-08-04T17:37:43.057Z,7.17
2018-08-04T17:40:12.935Z,9.20
2018-08-04T17:42:42.364Z,12.17
2018-08-04T17:45:12.050Z,7.00
2018-08-04T17:47:42.134Z,6.50
2018-08-04T17:50:11.527Z,6.83
2018-08-04T17:52:40.901Z,7.53
2018-08-04T17:55:10.668Z,8.13
2018-08-04T17:57:40.143Z,8.60
2018-08-04T18:00:09.745Z,8.13
2018-08-04T18:02:39.440Z,8.80
2018-08-04T18:05:09.615Z,8.30
2018-08-04T18:07:39.082Z,8.60
2018-08-04T18:10:08.933Z,10.67
2018-08-04T18:12:38.334Z,7.57
2018-08-04T18:15:07.886Z,7.53
2018-08-04T18:17:37.820Z,8.80
2018-08-04T18:20:07.441Z,8.13
2018-08-04T18:22:37.025Z,8.90
2018-08-04T18:25:07.147Z,8.87
2018-08-04T18:27:36.868Z,10.13
2018-08-04T18:30:37.553Z,7.63
2018-08-04T18:33:07.126Z,8.77
2018-08-04T18:35:36.633Z,12.10
2018-08-04T18:38:06.298Z,8.40
2018-08-04T18:40:35.775Z,9.20
2018-08-04T18:43:05.616Z,12.23
2018-08-04T18:45:35.372Z,9.00
2018-08-04T18:48:05.186Z,8.23
2018-08-04T18:50:34.634Z,8.20
2018-08-04T18:53:04.724Z,9.00
2018-08-04T18:55:33.881Z,11.00
2018-08-04T18:58:03.417Z,8.43
2018-08-04T19:00:33.318Z,10.17
2018-08-04T19:03:03.435Z,10.13
2018-08-04T19:05:32.869Z,9.43
2018-08-04T19:08:02.841Z,6.07
2018-08-04T19:10:32.510Z,8.70
2018-08-04T19:13:01.801Z,9.83
2018-08-04T19:15:31.445Z,13.60
2018-08-04T19:18:00.829Z,21.87
2018-08-04T19:20:30.073Z,9.80
2018-08-04T19:23:00.147Z,10.27
2018-08-04T19:25:29.698Z,7.27
2018-08-04T19:27:58.804Z,8.10
2018-08-04T19:30:28.607Z,7.60
2018-08-04T19:32:57.769Z,8.30
2018-08-04T19:35:27.240Z,10.27
2018-08-04T19:37:57.372Z,9.60
2018-08-04T19:40:26.467Z,7.50
2018-08-04T19:42:55.573Z,9.53
2018-08-04T19:45:25.315Z,6.63
2018-08-04T19:47:54.910Z,7.57
2018-08-04T19:50:24.316Z,9.60
2018-08-04T19:52:54.452Z,8.60
2018-08-04T19:55:23.883Z,7.77
2018-08-04T19:57:53.203Z,10.10
2018-08-04T20:00:22.668Z,8.33
2018-08-04T20:02:52.325Z,8.40
2018-08-04T20:05:21.642Z,9.37
2018-08-04T20:07:51.334Z,7.03
2018-08-04T20:10:21.109Z,8.37
2018-08-04T20:12:50.500Z,6.13
2018-08-04T20:15:19.973Z,6.63
2018-08-04T20:17:49.442Z,7.47
2018-08-04T20:20:19.075Z,8.30
2018-08-04T20:22:48.913Z,10.40
2018-08-04T20:25:18.461Z,5.57
2018-08-04T20:27:47.894Z,6.63
2018-08-04T20:30:17.508Z,10.33
2018-08-04T20:32:47.281Z,7.77
2018-08-04T20:35:16.667Z,7.20
2018-08-04T20:37:46.290Z,5.27
2018-08-04T20:40:15.863Z,12.10
2018-08-04T20:42:45.288Z,11.60
2018-08-04T20:45:15.037Z,6.63
2018-08-04T20:47:44.677Z,6.90
2018-08-04T20:50:14.461Z,10.70
2018-08-04T20:52:44.077Z,8.27
2018-08-04T20:55:13.658Z,8.07
2018-08-04T20:57:43.165Z,9.23
2018-08-04T21:00:12.919Z,10.87
2018-08-04T21:02:42.484Z,7.50
2018-08-04T21:05:12.127Z,5.17
2018-08-04T21:07:41.808Z,7.30
2018-08-04T21:10:11.596Z,7.33
2018-08-04T21:12:41.097Z,7.73
2018-08-04T21:15:10.740Z,8.97
2018-08-04T21:17:40.301Z,10.17
2018-08-04T21:20:09.790Z,11.47
2018-08-04T21:22:39.392Z,11.23
2018-08-04T21:25:09.018Z,9.90
2018-08-04T21:27:38.501Z,12.17
2018-08-04T21:30:08.746Z,13.53
2018-08-04T21:32:38.335Z,11.20
2018-08-04T21:35:07.766Z,9.90
2018-08-04T21:37:37.394Z,7.30
2018-08-04T21:40:07.509Z,8.07
2018-08-04T21:42:36.762Z,9.37
2018-08-04T21:45:06.803Z,9.10
2018-08-04T21:47:36.306Z,9.47
2018-08-04T21:50:05.648Z,13.67
2018-08-04T21:52:35.725Z,8.83
2018-08-04T21:55:05.398Z,9.47
2018-08-04T21:57:34.754Z,8.13
2018-08-04T22:00:04.688Z,17.97
2018-08-04T22:02:34.175Z,10.37
2018-08-04T22:05:03.496Z,10.53
2018-08-04T22:07:45.324Z,9.83
2018-08-04T22:10:15.227Z,8.50
2018-08-04T22:12:45.005Z,9.27
2018-08-04T22:15:15.566Z,11.60
2018-08-04T22:17:45.221Z,7.97
2018-08-04T22:20:16.349Z,9.50
2018-08-04T22:22:45.827Z,13.00
2018-08-04T22:25:17.486Z,10.30
2018-08-04T22:27:47.054Z,14.60
2018-08-04T22:30:17.629Z,14.17
2018-08-04T22:32:47.535Z,18.10
2018-08-04T22:35:17.065Z,16.27
2018-08-04T22:37:46.696Z,14.40
2018-08-04T22:40:16.783Z,14.77
2018-08-04T22:42:46.363Z,10.40
2018-08-04T22:46:07.148Z,12.13
2018-08-04T22:48:36.722Z,11.60
2018-08-04T22:51:06.601Z,15.53
2018-08-04T22:53:36.514Z,14.03
2018-08-04T22:56:06.090Z,16.93
2018-08-04T22:58:35.685Z,17.33
2018-08-04T23:01:06.158Z,11.63
2018-08-04T23:03:35.589Z,16.63
2018-08-04T23:06:05.419Z,16.40
2018-08-04T23:08:35.043Z,15.33
2018-08-04T23:11:04.743Z,11.27
2018-08-04T23:13:34.214Z,16.07
2018-08-04T23:16:04.193Z,12.93
2018-08-04T23:18:33.663Z,11.57
2018-08-04T23:21:03.080Z,14.37
2018-08-04T23:23:33.102Z,13.87
2018-08-04T23:26:02.556Z,15.27
2018-08-04T23:28:32.051Z,16.67
2018-08-04T23:31:01.927Z,13.03
2018-08-04T23:33:31.422Z,11.77
2018-08-04T23:36:00.768Z,13.83
2018-08-04T23:38:30.553Z,15.90
2018-08-04T23:41:00.288Z,13.03
2018-08-04T23:43:29.426Z,11.83
2018-08-04T23:45:59.237Z,12.03
2018-08-04T23:48:28.672Z,10.27
2018-08-04T23:50:58.159Z,13.63
2018-08-04T23:53:28.006Z,14.73
2018-08-04T23:55:57.722Z,14.87
2018-08-04T23:58:27.330Z,18.37
